Time;durP1;ratioP1;P1;durP2;ratioP2;P2;SDS_P1;SDS_P2;PMS_P1;PMS_P2;Temp;Humidity;BMP_temperature;BMP_pressure;BME280_temperature;BME280_humidity;BME280_pressure;Samples;Min_cycle;Max_cycle;Signal;HPM_P1;HPM_P2
2023/06/18 00:03:54;;;;;;;15.35;9.38;;;;;;;14.51;71.38;99941.00;30504362;28;97043;-70
2023/06/18 00:18:55;;;;;;;16.00;9.80;;;;;;;14.36;71.12;99933.94;30504679;28;96724;-67
2023/06/18 00:33:55;;;;;;;12.40;8.82;;;;;;;14.07;71.26;99943.13;30502375;28;110411;-68
2023/06/18 00:48:57;;;;;;;13.85;9.07;;;;;;;13.86;71.80;99952.91;30500901;28;96534;-70
2023/06/18 01:03:59;;;;;;;17.17;11.13;;;;;;;13.75;72.09;99940.09;30499155;28;96901;-69
2023/06/18 01:19:01;;;;;;;16.87;10.93;;;;;;;13.63;72.46;99938.97;30498539;28;97562;-70
2023/06/18 01:34:04;;;;;;;19.93;10.87;;;;;;;13.48;72.84;99945.25;30497491;28;97702;-68
2023/06/18 01:49:07;;;;;;;19.47;12.80;;;;;;;13.44;72.99;99960.03;30495630;28;96815;-68
2023/06/18 02:04:07;;;;;;;22.57;11.27;;;;;;;13.32;73.20;99967.72;30493348;28;97101;-70
2023/06/18 02:19:08;;;;;;;21.58;12.18;;;;;;;13.18;73.64;99966.81;30493895;28;97216;-70
2023/06/18 02:34:09;;;;;;;17.45;10.95;;;;;;;12.98;74.02;99973.81;30492805;28;96727;-69
2023/06/18 02:49:09;;;;;;;17.75;11.43;;;;;;;12.81;73.83;99990.13;30491436;28;96800;-69
2023/06/18 03:04:09;;;;;;;17.77;11.02;;;;;;;12.70;74.25;99995.97;30502696;28;97234;-68
2023/06/18 03:19:10;;;;;;;17.55;9.98;;;;;;;12.60;74.64;99998.94;30509854;28;96711;-70
2023/06/18 03:34:12;;;;;;;13.13;9.75;;;;;;;12.76;75.14;100005.88;30507213;28;96843;-70
2023/06/18 03:49:13;;;;;;;14.20;10.03;;;;;;;12.86;75.30;100011.75;30507374;28;96844;-69
2023/06/18 04:04:13;;;;;;;15.65;9.25;;;;;;;13.04;74.96;100026.56;30504706;28;97289;-70
2023/06/18 04:19:14;;;;;;;12.93;9.30;;;;;;;13.39;75.28;100017.84;30502479;28;96808;-68
2023/06/18 04:34:15;;;;;;;14.38;8.77;;;;;;;13.93;74.92;100024.41;30502355;28;96805;-67
2023/06/18 04:49:15;;;;;;;14.60;9.18;;;;;;;14.49;74.28;100028.81;30500049;28;111648;-69
2023/06/18 05:04:16;;;;;;;12.40;8.70;;;;;;;15.02;73.26;100029.03;30498719;28;96805;-70
2023/06/18 05:19:16;;;;;;;12.38;9.13;;;;;;;15.63;72.94;100035.25;30497384;28;103730;-70
2023/06/18 05:34:16;;;;;;;15.45;10.50;;;;;;;15.98;72.14;100042.25;30496646;28;114786;-69
2023/06/18 05:49:17;;;;;;;16.88;10.93;;;;;;;16.73;71.60;100050.72;30495645;28;98140;-68
2023/06/18 06:04:17;;;;;;;16.65;9.93;;;;;;;17.59;70.53;100069.25;30493362;28;96711;-69
2023/06/18 06:19:17;;;;;;;10.98;9.43;;;;;;;18.60;68.87;100091.53;30492745;28;96577;-68
2023/06/18 06:34:20;;;;;;;;;;;;;;;19.34;66.76;100089.75;30504279;28;97250;-68
2023/06/18 06:49:20;;;;;;;10.20;8.70;;;;;;;20.00;64.66;100090.59;30531321;28;96631;-68
2023/06/18 07:04:20;;;;;;;9.52;8.25;;;;;;;21.01;62.64;100088.63;30524640;28;113577;-68
2023/06/18 07:19:21;;;;;;;9.23;7.40;;;;;;;22.07;59.42;100085.28;30520912;28;97335;-70
2023/06/18 07:34:21;;;;;;;8.60;7.23;;;;;;;22.93;56.39;100094.81;30519276;28;97202;-69
2023/06/18 07:49:21;;;;;;;;;;;;;;;24.12;52.38;100082.28;30385184;28;107758;-68
2023/06/18 08:04:22;;;;;;;6.57;5.20;;;;;;;23.93;49.81;100079.97;30377171;28;97457;-67
2023/06/18 08:19:22;;;;;;;6.50;5.60;;;;;;;25.09;45.78;100092.75;30375735;28;97468;-66
2023/06/18 08:34:23;;;;;;;6.25;5.13;;;;;;;25.42;44.96;100087.91;30373968;28;96807;-67
2023/06/18 08:49:26;;;;;;;9.43;4.50;;;;;;;26.21;42.92;100068.50;30373222;28;96814;-68
2023/06/18 09:04:29;;;;;;;4.30;3.70;;;;;;;26.92;39.61;100073.94;30484829;28;97778;-67
2023/06/18 09:19:31;;;;;;;5.27;3.80;;;;;;;28.16;37.99;100057.34;30398199;28;96846;-71
2023/06/18 09:34:31;;;;;;;7.20;3.83;;;;;;;28.48;35.98;100064.91;30485915;28;97148;-67
2023/06/18 09:49:33;;;;;;;4.57;2.97;;;;;;;29.30;33.52;100057.47;30485017;28;100958;-67
2023/06/18 10:04:33;;;;;;;4.60;3.60;;;;;;;28.84;33.73;100050.75;30483056;28;96836;-66
2023/06/18 10:19:47;;;;;;;5.55;3.60;;;;;;;28.92;32.78;100041.03;30481562;28;99044;-68
2023/06/18 10:34:48;;;;;;;5.10;3.70;;;;;;;29.34;32.62;100036.56;30479715;28;97596;-67
2023/06/18 10:50:06;;;;;;;4.53;2.95;;;;;;;28.95;31.30;100024.00;30527565;28;97133;-69
2023/06/18 11:05:34;;;;;;;4.90;3.67;;;;;;;30.72;30.08;100020.47;30474133;28;97231;-71
2023/06/18 11:20:38;;;;;;;4.97;3.40;;;;;;;30.80;29.06;100014.25;30483500;28;97631;-72
2023/06/18 11:35:38;;;;;;;5.70;5.10;;;;;;;30.35;30.39;99998.44;30497857;28;97545;-72
2023/06/18 11:50:38;;;;;;;4.07;3.47;;;;;;;31.00;28.73;99981.88;30495474;28;96721;-71
2023/06/18 12:05:39;;;;;;;3.92;2.58;;;;;;;30.46;28.87;99977.06;30493816;28;97569;-69
2023/06/18 12:20:40;;;;;;;5.23;3.40;;;;;;;28.81;30.05;99996.50;30492847;28;97150;-67
2023/06/18 12:35:54;;;;;;;4.57;3.10;;;;;;;29.36;30.93;99976.72;30487514;28;97166;-71
2023/06/18 12:50:55;;;;;;;4.10;2.83;;;;;;;29.64;30.33;99964.97;30495997;28;97479;-70
2023/06/18 13:05:57;;;;;;;4.63;3.37;;;;;;;29.05;30.16;99970.94;30498258;28;96747;-70
2023/06/18 13:20:59;;;;;;;3.00;2.50;;;;;;;30.11;28.70;99971.19;30453392;28;96907;-69
2023/06/18 13:35:59;;;;;;;4.43;3.40;;;;;;;30.62;28.78;99969.31;30483096;28;97011;-68
2023/06/18 13:51:00;;;;;;;4.53;3.10;;;;;;;29.99;28.46;99963.50;30491381;28;111115;-69
2023/06/18 14:06:00;;;;;;;4.50;3.53;;;;;;;28.53;29.66;99952.50;30486153;28;107556;-68
2023/06/18 14:21:01;;;;;;;4.28;3.33;;;;;;;28.44;30.17;99961.69;30491621;28;97243;-68
2023/06/18 14:36:01;;;;;;;4.03;3.13;;;;;;;28.34;30.79;99970.88;30491050;28;96637;-67
2023/06/18 14:51:02;;;;;;;5.72;3.60;;;;;;;28.56;30.73;99956.56;30491785;28;96601;-67
2023/06/18 15:06:02;;;;;;;7.90;5.43;;;;;;;29.10;29.95;99959.06;30509328;28;96777;-69
2023/06/18 15:21:03;;;;;;;5.57;4.88;;;;;;;28.95;30.49;99957.38;30508128;28;96738;-68
2023/06/18 15:36:03;;;;;;;6.03;4.10;;;;;;;28.71;30.14;99950.09;30506592;28;104512;-68
2023/06/18 15:51:04;;;;;;;4.80;3.78;;;;;;;28.28;31.45;99940.00;30505886;28;97106;-68
2023/06/18 16:06:05;;;;;;;4.07;3.43;;;;;;;28.45;31.00;99927.72;30502672;28;98504;-68
2023/06/18 16:21:07;;;;;;;5.50;3.60;;;;;;;27.98;30.99;99939.25;30502722;28;100784;-68
2023/06/18 16:36:07;;;;;;;4.40;3.17;;;;;;;27.43;31.42;99942.31;30500305;28;97526;-69
2023/06/18 16:51:09;;;;;;;5.10;3.70;;;;;;;26.93;32.17;99955.31;30499424;28;96750;-69
2023/06/18 17:06:09;;;;;;;3.83;3.13;;;;;;;26.42;33.00;99965.47;30498274;28;97333;-69
2023/06/18 17:21:10;;;;;;;5.38;3.85;;;;;;;25.84;34.50;99974.16;30447875;28;96764;-72
2023/06/18 17:36:11;;;;;;;5.45;4.07;;;;;;;25.23;36.18;99973.09;30380693;28;97165;-67
2023/06/18 17:51:12;;;;;;;5.07;4.15;;;;;;;24.59;37.46;99972.50;30484449;28;96979;-67
2023/06/18 18:06:14;;;;;;;5.43;4.57;;;;;;;24.17;38.12;99985.16;30484312;28;96954;-68
2023/06/18 18:21:15;;;;;;;5.60;4.40;;;;;;;23.60;39.25;99994.88;30482609;28;97517;-68
2023/06/18 18:36:15;;;;;;;6.90;4.43;;;;;;;23.77;40.67;99996.59;30481268;28;97222;-67
2023/06/18 18:51:16;;;;;;;5.32;3.88;;;;;;;23.61;42.09;100017.47;30480594;28;96829;-67
2023/06/18 19:06:16;;;;;;;6.05;4.63;;;;;;;22.97;44.09;100019.88;30477129;28;109684;-67
2023/06/18 19:21:16;;;;;;;;;;;;;;;22.24;46.44;100058.13;30478544;28;116392;-67
2023/06/18 19:36:18;;;;;;;9.50;5.93;;;;;;;21.61;48.12;100066.44;30479065;28;96816;-67
2023/06/18 19:51:18;;;;;;;5.67;4.90;;;;;;;21.00;49.88;100078.88;30493319;28;97568;-66
2023/06/18 20:06:19;;;;;;;12.37;6.53;;;;;;;20.74;51.28;100086.50;30492819;28;97497;-66
2023/06/18 20:21:20;;;;;;;10.07;5.30;;;;;;;20.61;52.93;100090.25;30491961;28;107051;-67
2023/06/18 20:36:21;;;;;;;9.57;5.10;;;;;;;20.80;53.09;100088.25;30493615;28;97390;-67
2023/06/18 20:51:21;;;;;;;8.90;5.27;;;;;;;20.61;53.22;100088.41;30479808;28;97355;-66
2023/06/18 21:06:22;;;;;;;6.90;5.83;;;;;;;19.98;54.38;100076.47;30371123;28;97028;-67
2023/06/18 21:21:22;;;;;;;9.63;5.90;;;;;;;19.42;55.87;100070.50;30370088;28;97399;-66
2023/06/18 21:36:23;;;;;;;9.13;6.00;;;;;;;18.98;56.96;100078.00;30367921;28;96744;-66
2023/06/18 21:51:24;;;;;;;;;;;;;;;19.05;58.29;100076.03;30368183;28;97098;-66
2023/06/18 22:06:25;;;;;;;8.57;6.35;;;;;;;18.68;58.18;100076.06;30469518;28;98383;-67
2023/06/18 22:21:26;;;;;;;8.88;6.65;;;;;;;17.92;59.46;100077.09;30494017;28;96787;-67
2023/06/18 22:36:27;;;;;;;8.50;6.37;;;;;;;17.59;60.85;100078.16;30493380;28;97161;-67
2023/06/18 22:51:27;;;;;;;9.60;6.50;;;;;;;17.11;61.93;100062.53;30491217;28;112257;-67
2023/06/18 23:06:27;;;;;;;8.13;6.47;;;;;;;16.77;63.31;100067.25;30490716;28;96857;-67
2023/06/18 23:21:28;;;;;;;8.68;7.07;;;;;;;16.56;64.31;100061.13;30503110;28;96699;-67
2023/06/18 23:36:28;;;;;;;13.18;6.97;;;;;;;16.39;64.94;100054.59;30509600;28;109345;-67
2023/06/18 23:51:28;;;;;;;9.20;6.28;;;;;;;16.24;65.39;100074.47;30507652;28;97923;-67
